createdAt,value
2023-12-16T00:01:26.786Z,6.97
2023-12-16T00:03:54.285Z,5.97
2023-12-16T00:06:21.889Z,5.40
2023-12-16T00:08:50.059Z,6.18
2023-12-16T00:11:17.555Z,6.13
2023-12-16T00:13:45.122Z,5.78
2023-12-16T00:16:12.443Z,5.38
2023-12-16T00:18:39.996Z,4.70
2023-12-16T00:21:08.967Z,3.22
2023-12-16T00:23:36.325Z,3.85
2023-12-16T00:26:03.802Z,2.55
2023-12-16T00:28:31.339Z,4.10
2023-12-16T00:30:59.109Z,3.17
2023-12-16T00:33:26.482Z,3.92
2023-12-16T00:35:53.996Z,4.45
2023-12-16T00:38:21.073Z,4.90
2023-12-16T00:40:48.285Z,3.05
2023-12-16T00:43:15.846Z,3.80
2023-12-16T00:45:43.311Z,3.67
2023-12-16T00:48:10.665Z,3.58
2023-12-16T00:50:39.705Z,2.95
2023-12-16T00:53:07.255Z,4.70
2023-12-16T00:55:34.567Z,3.63
2023-12-16T00:58:01.797Z,3.55
2023-12-16T01:00:28.960Z,3.17
2023-12-16T01:02:56.192Z,3.20
2023-12-16T01:05:23.331Z,3.08
2023-12-16T01:07:50.609Z,3.60
2023-12-16T01:10:17.815Z,3.15
2023-12-16T01:12:44.986Z,3.00
2023-12-16T01:15:12.261Z,4.45
2023-12-16T01:17:39.803Z,3.58
2023-12-16T01:20:08.094Z,3.35
2023-12-16T01:22:35.189Z,3.03
2023-12-16T01:25:02.411Z,3.10
2023-12-16T01:27:29.595Z,3.05
2023-12-16T01:29:56.684Z,3.85
2023-12-16T01:32:23.837Z,3.22
2023-12-16T01:34:50.968Z,5.65
2023-12-16T01:37:18.303Z,3.13
2023-12-16T01:39:45.496Z,2.95
2023-12-16T01:42:12.855Z,3.42
2023-12-16T01:44:39.969Z,3.22
2023-12-16T01:47:07.516Z,3.17
2023-12-16T01:49:35.211Z,2.55
2023-12-16T01:52:02.672Z,3.78
2023-12-16T01:54:29.925Z,3.55
2023-12-16T01:56:58.853Z,2.83
2023-12-16T01:59:27.712Z,2.80
2023-12-16T02:01:56.085Z,2.35
2023-12-16T02:04:23.445Z,3.15
2023-12-16T02:06:51.702Z,2.20
2023-12-16T02:09:20.997Z,2.53
2023-12-16T02:11:48.426Z,2.63
2023-12-16T02:14:15.700Z,2.63
2023-12-16T02:16:43.378Z,2.22
2023-12-16T02:19:16.205Z,2.53
2023-12-16T02:21:43.435Z,2.85
2023-12-16T02:24:10.696Z,2.83
2023-12-16T02:26:37.884Z,3.78
2023-12-16T02:29:05.084Z,3.38
2023-12-16T02:31:32.286Z,2.92
2023-12-16T02:33:59.607Z,3.13
2023-12-16T02:36:26.871Z,2.47
2023-12-16T02:38:54.130Z,3.10
2023-12-16T02:41:22.527Z,2.50
2023-12-16T02:43:49.712Z,1.90
2023-12-16T02:46:16.925Z,2.58
2023-12-16T02:48:44.276Z,3.17
2023-12-16T02:51:19.335Z,2.20
2023-12-16T02:53:47.096Z,3.03
2023-12-16T02:56:14.355Z,2.75
2023-12-16T02:58:41.650Z,2.33
2023-12-16T03:01:08.853Z,2.30
2023-12-16T03:03:40.849Z,2.20
2023-12-16T03:06:08.815Z,3.72
2023-12-16T03:08:36.523Z,2.55
2023-12-16T03:11:04.880Z,2.22
2023-12-16T03:13:32.608Z,2.25
2023-12-16T03:15:59.956Z,2.40
2023-12-16T03:18:27.203Z,2.47
2023-12-16T03:20:55.681Z,1.90
2023-12-16T03:23:22.814Z,2.50
2023-12-16T03:25:49.912Z,2.03
2023-12-16T03:28:17.219Z,2.13
2023-12-16T03:30:45.059Z,2.42
2023-12-16T03:33:12.348Z,2.03
2023-12-16T03:35:39.513Z,1.65
2023-12-16T03:38:06.616Z,2.10
2023-12-16T03:40:33.930Z,1.75
2023-12-16T03:43:01.156Z,1.80
2023-12-16T03:45:28.743Z,1.90
2023-12-16T03:47:56.028Z,1.80
2023-12-16T03:50:23.189Z,1.98
2023-12-16T03:52:50.407Z,1.45
2023-12-16T03:55:17.621Z,1.77
2023-12-16T03:57:44.891Z,2.08
2023-12-16T04:00:12.769Z,2.13
2023-12-16T04:02:40.017Z,2.08
2023-12-16T04:05:08.798Z,1.50
2023-12-16T04:07:36.273Z,2.25
2023-12-16T04:10:04.659Z,1.80
2023-12-16T04:12:33.113Z,1.30
2023-12-16T04:15:00.373Z,1.63
2023-12-16T04:17:27.553Z,1.98
2023-12-16T04:19:55.911Z,1.65
2023-12-16T04:22:23.667Z,0.95
2023-12-16T04:24:58.980Z,1.90
2023-12-16T04:27:27.494Z,1.38
2023-12-16T04:29:54.859Z,1.23
2023-12-16T04:32:23.164Z,1.20
2023-12-16T04:34:50.460Z,1.00
2023-12-16T04:37:17.628Z,1.13
2023-12-16T04:39:44.935Z,1.42
2023-12-16T04:42:12.233Z,1.20
2023-12-16T04:44:39.358Z,1.38
2023-12-16T04:47:08.443Z,1.08
2023-12-16T04:49:36.176Z,0.93
2023-12-16T04:52:03.657Z,1.42
2023-12-16T04:54:30.918Z,1.23
2023-12-16T04:56:58.030Z,1.20
2023-12-16T04:59:25.119Z,1.45
2023-12-16T05:01:53.778Z,0.80
2023-12-16T05:04:21.025Z,0.73
2023-12-16T05:06:48.222Z,0.70
2023-12-16T05:09:15.440Z,1.00
2023-12-16T05:11:42.623Z,0.90
2023-12-16T05:14:09.718Z,1.10
2023-12-16T05:16:36.866Z,0.82
2023-12-16T05:19:07.650Z,1.00
2023-12-16T05:21:34.926Z,0.68
2023-12-16T05:24:02.085Z,0.85
2023-12-16T05:26:29.208Z,0.68
2023-12-16T05:28:56.651Z,0.60
2023-12-16T05:31:23.805Z,0.80
2023-12-16T05:33:51.192Z,0.80
2023-12-16T05:36:18.517Z,0.50
2023-12-16T05:38:45.705Z,0.60
2023-12-16T05:41:16.177Z,0.68
2023-12-16T05:43:43.441Z,0.75
2023-12-16T05:46:10.654Z,0.47
2023-12-16T05:48:38.092Z,0.93
2023-12-16T05:51:06.932Z,0.95
2023-12-16T05:53:37.482Z,0.80
2023-12-16T05:56:08.311Z,0.90
2023-12-16T05:58:35.546Z,1.05
2023-12-16T06:01:03.018Z,0.80
2023-12-16T06:03:30.278Z,1.25
2023-12-16T06:05:57.430Z,1.00
2023-12-16T06:08:24.641Z,1.17
2023-12-16T06:10:51.773Z,0.70
2023-12-16T06:13:19.067Z,1.60
2023-12-16T06:15:46.237Z,0.98
2023-12-16T06:18:13.910Z,1.00
2023-12-16T06:20:41.137Z,1.50
2023-12-16T06:23:08.296Z,1.02
2023-12-16T06:25:35.518Z,1.40
2023-12-16T06:28:02.911Z,1.40
2023-12-16T06:30:30.144Z,1.20
2023-12-16T06:32:57.349Z,1.33
2023-12-16T06:35:24.537Z,1.23
2023-12-16T06:37:51.890Z,1.38
2023-12-16T06:40:19.145Z,1.42
2023-12-16T06:42:46.299Z,1.00
2023-12-16T06:45:13.630Z,1.45
2023-12-16T06:47:42.333Z,1.42
2023-12-16T06:50:10.418Z,1.13
2023-12-16T06:52:37.665Z,1.48
2023-12-16T06:55:05.424Z,1.00
2023-12-16T06:57:32.824Z,1.10
2023-12-16T07:00:00.250Z,1.23
2023-12-16T07:02:27.490Z,0.77
2023-12-16T07:04:54.634Z,1.00
2023-12-16T07:07:22.118Z,1.23
2023-12-16T07:09:49.377Z,1.55
2023-12-16T07:12:16.569Z,1.00
2023-12-16T07:14:44.400Z,0.80
2023-12-16T07:17:11.613Z,0.90
2023-12-16T07:19:39.108Z,1.13
2023-12-16T07:22:06.368Z,1.20
2023-12-16T07:24:33.596Z,1.05
2023-12-16T07:27:00.787Z,1.10
2023-12-16T07:29:27.990Z,1.10
2023-12-16T07:31:55.191Z,1.10
2023-12-16T07:34:22.578Z,1.27
2023-12-16T07:36:49.871Z,1.00
2023-12-16T07:39:17.255Z,1.42
2023-12-16T07:41:44.382Z,1.30
2023-12-16T07:44:12.909Z,1.20
2023-12-16T07:46:43.368Z,1.55
2023-12-16T07:49:11.498Z,1.50
2023-12-16T07:51:38.768Z,1.63
2023-12-16T07:54:06.005Z,1.65
2023-12-16T07:56:33.225Z,1.70
2023-12-16T07:59:00.543Z,1.30
2023-12-16T08:01:27.858Z,1.60
2023-12-16T08:03:55.266Z,1.48
2023-12-16T08:06:22.572Z,1.50
2023-12-16T08:08:49.764Z,1.77
2023-12-16T08:11:16.867Z,1.73
2023-12-16T08:13:44.146Z,1.95
2023-12-16T08:16:12.659Z,1.67
2023-12-16T08:18:40.582Z,1.80
2023-12-16T08:21:08.039Z,1.60
2023-12-16T08:23:35.289Z,1.80
2023-12-16T08:26:02.536Z,1.90
2023-12-16T08:28:29.701Z,2.30
2023-12-16T08:30:57.252Z,1.65
2023-12-16T08:33:24.436Z,1.92
2023-12-16T08:35:51.770Z,1.67
2023-12-16T08:38:18.980Z,1.77
2023-12-16T08:40:46.427Z,2.40
2023-12-16T08:43:13.621Z,1.63
2023-12-16T08:45:40.945Z,2.08
2023-12-16T08:48:08.239Z,1.70
2023-12-16T08:50:35.526Z,2.33
2023-12-16T08:53:02.775Z,1.85
2023-12-16T08:55:30.093Z,2.10
2023-12-16T08:57:57.998Z,2.20
2023-12-16T09:00:25.269Z,1.50
2023-12-16T09:02:52.365Z,1.40
2023-12-16T09:05:21.124Z,1.60
2023-12-16T09:07:48.481Z,1.60
2023-12-16T09:10:15.695Z,2.08
2023-12-16T09:12:43.038Z,1.70
2023-12-16T09:15:10.338Z,1.60
2023-12-16T09:17:37.932Z,1.15
2023-12-16T09:20:06.701Z,0.95
2023-12-16T09:22:34.251Z,1.10
2023-12-16T09:25:02.336Z,1.20
2023-12-16T09:27:29.567Z,0.93
2023-12-16T09:29:56.767Z,1.00
2023-12-16T09:32:24.112Z,1.13
2023-12-16T09:34:51.490Z,1.30
2023-12-16T09:37:18.772Z,1.92
2023-12-16T09:39:46.056Z,1.38
2023-12-16T09:42:18.299Z,1.52
2023-12-16T09:44:49.714Z,1.35
2023-12-16T09:47:17.364Z,1.58
2023-12-16T09:49:48.095Z,1.30
2023-12-16T09:52:15.418Z,1.20
2023-12-16T09:54:42.740Z,1.15
2023-12-16T09:57:12.473Z,0.90
2023-12-16T09:59:42.338Z,1.00
2023-12-16T10:02:22.972Z,1.10
2023-12-16T10:04:52.815Z,1.00
2023-12-16T10:07:20.080Z,0.82
2023-12-16T10:09:47.296Z,0.85
2023-12-16T10:12:14.655Z,0.55
2023-12-16T10:14:48.948Z,0.63
2023-12-16T10:17:21.756Z,0.75
2023-12-16T10:19:50.423Z,0.55
2023-12-16T10:22:21.396Z,0.70
2023-12-16T10:24:48.774Z,0.63
2023-12-16T10:27:17.072Z,0.55
2023-12-16T10:29:54.458Z,0.50
2023-12-16T10:32:30.450Z,0.50
2023-12-16T10:34:57.755Z,0.50
2023-12-16T10:37:25.147Z,0.50
2023-12-16T10:39:52.748Z,0.43
2023-12-16T10:42:20.308Z,0.77
2023-12-16T10:44:50.659Z,0.80
2023-12-16T10:47:19.179Z,0.63
2023-12-16T10:49:47.180Z,0.75
2023-12-16T10:52:18.528Z,0.80
2023-12-16T10:54:49.241Z,1.30
2023-12-16T10:57:33.512Z,1.05
2023-12-16T11:00:09.158Z,0.88
2023-12-16T11:02:56.912Z,0.90
2023-12-16T11:05:34.082Z,1.05
2023-12-16T11:08:05.342Z,1.00
2023-12-16T11:10:33.025Z,0.93
2023-12-16T11:13:02.228Z,0.88
2023-12-16T11:15:33.611Z,1.02
2023-12-16T11:18:18.909Z,1.30
2023-12-16T11:20:52.031Z,1.20
2023-12-16T11:23:20.041Z,1.00
2023-12-16T11:25:48.950Z,1.00
2023-12-16T11:28:16.181Z,0.70
2023-12-16T11:30:43.426Z,0.80
2023-12-16T11:33:10.812Z,0.65
2023-12-16T11:35:40.840Z,0.43
2023-12-16T11:38:09.261Z,0.35
2023-12-16T11:40:42.588Z,0.55
2023-12-16T11:43:11.102Z,0.70
2023-12-16T11:45:49.995Z,0.43
2023-12-16T11:48:18.634Z,0.70
2023-12-16T11:50:47.905Z,0.85
2023-12-16T11:53:18.965Z,1.73
2023-12-16T11:55:46.757Z,1.30
2023-12-16T11:58:14.092Z,2.60
2023-12-16T12:00:42.430Z,5.38
2023-12-16T12:03:09.986Z,4.00
2023-12-16T12:05:38.510Z,2.17
2023-12-16T12:08:07.427Z,0.57
2023-12-16T12:10:35.887Z,0.40
2023-12-16T12:13:04.142Z,0.80
2023-12-16T12:15:35.909Z,1.65
2023-12-16T12:18:03.409Z,0.80
2023-12-16T12:20:30.742Z,0.90
2023-12-16T12:22:58.306Z,0.80
2023-12-16T12:25:25.918Z,1.13
2023-12-16T12:27:53.198Z,1.48
2023-12-16T12:30:20.889Z,1.52
2023-12-16T12:32:48.737Z,2.35
2023-12-16T12:35:16.533Z,3.50
2023-12-16T12:37:44.887Z,1.08
2023-12-16T12:40:15.924Z,1.10
2023-12-16T12:42:50.481Z,0.37
2023-12-16T12:45:34.809Z,0.60
2023-12-16T12:48:12.440Z,1.00
2023-12-16T12:50:40.777Z,1.08
2023-12-16T12:53:25.290Z,0.90
2023-12-16T12:55:55.850Z,0.90
2023-12-16T12:58:29.004Z,0.60
2023-12-16T13:01:05.851Z,1.00
2023-12-16T13:03:35.325Z,0.60
2023-12-16T13:06:07.036Z,0.60
2023-12-16T13:08:36.933Z,0.65
2023-12-16T13:11:04.963Z,0.70
2023-12-16T13:13:32.345Z,0.60
2023-12-16T13:16:00.471Z,0.70
2023-12-16T13:18:29.257Z,0.75
2023-12-16T13:20:58.480Z,0.50
2023-12-16T13:23:27.457Z,0.60
2023-12-16T13:25:55.778Z,0.60
2023-12-16T13:28:23.822Z,0.52
2023-12-16T13:30:53.144Z,0.60
2023-12-16T13:33:21.760Z,0.55
2023-12-16T13:35:50.219Z,0.60
2023-12-16T13:38:17.648Z,0.50
2023-12-16T13:40:51.663Z,0.57
2023-12-16T13:43:21.270Z,0.40
2023-12-16T13:45:51.534Z,0.80
2023-12-16T13:48:20.160Z,1.40
2023-12-16T13:50:47.627Z,1.17
2023-12-16T13:53:14.939Z,0.90
2023-12-16T13:55:42.231Z,1.00
2023-12-16T13:58:09.683Z,0.85
2023-12-16T14:00:36.970Z,1.23
2023-12-16T14:03:04.550Z,0.65
2023-12-16T14:05:31.992Z,0.85
2023-12-16T14:07:59.255Z,0.70
2023-12-16T14:10:26.775Z,0.70
2023-12-16T14:12:53.986Z,1.33
2023-12-16T14:15:21.154Z,0.93
2023-12-16T14:17:48.371Z,0.98
2023-12-16T14:20:15.768Z,0.85
2023-12-16T14:22:43.018Z,1.13
2023-12-16T14:25:11.764Z,0.88
2023-12-16T14:27:39.223Z,0.90
2023-12-16T14:30:08.154Z,0.75
2023-12-16T14:32:35.592Z,0.82
2023-12-16T14:35:04.946Z,0.82
2023-12-16T14:37:32.300Z,0.88
2023-12-16T14:39:59.453Z,0.82
2023-12-16T14:42:26.707Z,0.60
2023-12-16T14:44:53.886Z,0.75
2023-12-16T14:47:21.133Z,0.55
2023-12-16T14:49:48.602Z,0.90
2023-12-16T14:52:15.899Z,1.08
2023-12-16T14:54:43.108Z,1.23
2023-12-16T14:57:11.023Z,0.90
2023-12-16T14:59:38.293Z,1.10
2023-12-16T15:02:05.435Z,0.95
2023-12-16T15:04:34.790Z,1.70
2023-12-16T15:07:02.771Z,1.15
2023-12-16T15:09:32.739Z,0.90
2023-12-16T15:11:59.937Z,2.35
2023-12-16T15:14:27.107Z,0.90
2023-12-16T15:16:54.332Z,0.80
2023-12-16T15:19:21.688Z,0.90
2023-12-16T15:21:51.857Z,0.55
2023-12-16T15:24:20.259Z,0.90
2023-12-16T15:26:47.487Z,0.75
2023-12-16T15:29:17.596Z,0.82
2023-12-16T15:31:49.359Z,0.90
2023-12-16T15:34:19.358Z,0.90
2023-12-16T15:36:47.220Z,1.00
2023-12-16T15:39:14.562Z,1.20
2023-12-16T15:41:41.757Z,1.70
2023-12-16T15:44:10.009Z,2.10
2023-12-16T15:46:42.067Z,1.48
2023-12-16T15:49:10.321Z,1.40
2023-12-16T15:51:38.690Z,1.83
2023-12-16T15:54:15.895Z,1.50
2023-12-16T15:56:47.144Z,1.52
2023-12-16T15:59:15.287Z,1.50
2023-12-16T16:01:45.640Z,1.48
2023-12-16T16:04:13.044Z,1.25
2023-12-16T16:06:40.200Z,1.27
2023-12-16T16:09:07.528Z,2.17
2023-12-16T16:11:34.813Z,1.77
2023-12-16T16:14:02.150Z,1.83
2023-12-16T16:16:29.561Z,1.92
2023-12-16T16:18:57.213Z,2.20
2023-12-16T16:21:24.423Z,2.22
2023-12-16T16:23:51.826Z,2.15
2023-12-16T16:26:19.295Z,1.70
2023-12-16T16:28:46.473Z,1.23
2023-12-16T16:31:15.560Z,1.20
2023-12-16T16:33:43.764Z,1.40
2023-12-16T16:36:11.297Z,1.35
2023-12-16T16:38:41.707Z,1.35
2023-12-16T16:41:09.240Z,1.50
2023-12-16T16:43:36.468Z,1.67
2023-12-16T16:46:03.729Z,2.20
2023-12-16T16:48:31.229Z,2.28
2023-12-16T16:50:58.493Z,2.38
2023-12-16T16:53:25.658Z,2.67
2023-12-16T16:55:54.805Z,2.75
2023-12-16T16:58:21.968Z,2.92
2023-12-16T17:00:49.681Z,3.10
2023-12-16T17:03:25.901Z,3.28
2023-12-16T17:05:53.633Z,2.47
2023-12-16T17:08:20.799Z,2.10
2023-12-16T17:10:48.033Z,2.45
2023-12-16T17:13:15.292Z,2.10
2023-12-16T17:15:43.979Z,2.70
2023-12-16T17:18:12.954Z,2.08
2023-12-16T17:20:40.304Z,2.28
2023-12-16T17:23:07.556Z,2.30
2023-12-16T17:25:35.884Z,2.17
2023-12-16T17:28:03.061Z,2.03
2023-12-16T17:30:30.423Z,2.30
2023-12-16T17:32:57.813Z,2.28
2023-12-16T17:35:25.001Z,2.70
2023-12-16T17:37:54.880Z,2.40
2023-12-16T17:40:22.094Z,3.00
2023-12-16T17:42:49.695Z,2.15
2023-12-16T17:45:16.957Z,1.65
2023-12-16T17:47:44.746Z,1.90
2023-12-16T17:50:12.187Z,1.90
2023-12-16T17:52:39.486Z,2.17
2023-12-16T17:55:07.142Z,1.88
2023-12-16T17:57:34.318Z,2.05
2023-12-16T18:00:01.872Z,2.50
2023-12-16T18:02:32.186Z,3.08
2023-12-16T18:04:59.447Z,2.97
2023-12-16T18:07:26.658Z,2.58
2023-12-16T18:09:53.817Z,2.30
2023-12-16T18:12:21.138Z,1.92
2023-12-16T18:14:48.756Z,2.47
2023-12-16T18:17:16.043Z,2.53
2023-12-16T18:19:43.214Z,2.25
2023-12-16T18:22:10.728Z,2.83
2023-12-16T18:24:38.014Z,2.38
2023-12-16T18:27:05.501Z,1.77
2023-12-16T18:29:37.467Z,2.00
2023-12-16T18:32:07.949Z,2.10
2023-12-16T18:34:35.671Z,1.90
2023-12-16T18:37:03.585Z,1.58
2023-12-16T18:39:30.847Z,1.20
2023-12-16T18:41:58.093Z,1.63
2023-12-16T18:44:25.511Z,1.00
2023-12-16T18:46:52.640Z,1.23
2023-12-16T18:49:19.906Z,1.40
2023-12-16T18:51:47.201Z,1.67
2023-12-16T18:54:17.173Z,1.30
2023-12-16T18:56:46.213Z,2.05
2023-12-16T18:59:13.623Z,1.20
2023-12-16T19:01:41.101Z,1.35
2023-12-16T19:04:08.385Z,1.40
2023-12-16T19:06:35.657Z,2.03
2023-12-16T19:09:03.051Z,2.15
2023-12-16T19:11:30.221Z,1.92
2023-12-16T19:13:57.351Z,2.25
2023-12-16T19:16:24.603Z,1.92
2023-12-16T19:18:52.019Z,1.75
2023-12-16T19:21:19.379Z,2.10
2023-12-16T19:23:46.565Z,1.52
2023-12-16T19:26:13.725Z,1.92
2023-12-16T19:28:40.932Z,2.03
2023-12-16T19:31:10.109Z,1.30
2023-12-16T19:33:39.310Z,1.27
2023-12-16T19:36:07.192Z,1.63
2023-12-16T19:38:35.532Z,1.33
2023-12-16T19:41:02.776Z,0.90
2023-12-16T19:43:30.064Z,1.33
2023-12-16T19:46:01.375Z,1.55
2023-12-16T19:48:29.475Z,1.10
2023-12-16T19:50:56.900Z,1.17
2023-12-16T19:53:24.307Z,0.80
2023-12-16T19:55:51.860Z,1.17
2023-12-16T19:58:19.578Z,1.05
2023-12-16T20:00:46.900Z,1.23
2023-12-16T20:03:14.267Z,1.13
2023-12-16T20:05:41.808Z,1.00
2023-12-16T20:08:09.138Z,0.80
2023-12-16T20:10:39.264Z,1.50
2023-12-16T20:13:06.428Z,1.17
2023-12-16T20:15:33.730Z,1.67
2023-12-16T20:18:02.512Z,1.30
2023-12-16T20:20:30.108Z,2.33
2023-12-16T20:22:59.092Z,1.75
2023-12-16T20:25:26.272Z,1.63
2023-12-16T20:27:53.481Z,2.17
2023-12-16T20:30:21.165Z,3.80
2023-12-16T20:32:48.506Z,2.60
2023-12-16T20:35:15.829Z,2.88
2023-12-16T20:37:56.652Z,3.78
2023-12-16T20:40:31.983Z,3.67
2023-12-16T20:43:02.000Z,2.75
2023-12-16T20:45:29.575Z,2.85
2023-12-16T20:47:58.194Z,2.80
2023-12-16T20:50:26.712Z,2.85
2023-12-16T20:52:54.633Z,2.25
2023-12-16T20:55:23.152Z,2.50
2023-12-16T20:57:51.009Z,2.00
2023-12-16T21:00:19.396Z,1.92
2023-12-16T21:02:46.829Z,2.42
2023-12-16T21:05:14.208Z,2.95
2023-12-16T21:07:42.124Z,2.33
2023-12-16T21:10:12.965Z,3.33
2023-12-16T21:12:40.774Z,2.63
2023-12-16T21:15:09.751Z,3.75
2023-12-16T21:17:38.510Z,2.38
2023-12-16T21:20:08.878Z,1.80
2023-12-16T21:22:36.634Z,1.45
2023-12-16T21:25:04.458Z,1.55
2023-12-16T21:27:31.914Z,2.10
2023-12-16T21:29:59.268Z,1.30
2023-12-16T21:32:26.738Z,1.55
2023-12-16T21:34:54.352Z,1.88
2023-12-16T21:37:21.664Z,1.80
2023-12-16T21:39:48.931Z,1.67
2023-12-16T21:42:16.161Z,1.67
2023-12-16T21:44:43.401Z,2.15
2023-12-16T21:47:10.740Z,1.65
2023-12-16T21:49:38.142Z,1.60
2023-12-16T21:52:05.836Z,1.95
2023-12-16T21:54:34.113Z,2.03
2023-12-16T21:57:01.433Z,2.10
2023-12-16T21:59:28.571Z,1.77
2023-12-16T22:01:55.805Z,2.35
2023-12-16T22:04:23.034Z,2.72
2023-12-16T22:06:50.198Z,2.58
2023-12-16T22:09:17.519Z,3.20
2023-12-16T22:11:45.041Z,2.95
2023-12-16T22:14:12.313Z,3.03
2023-12-16T22:16:40.198Z,3.72
2023-12-16T22:19:09.542Z,5.50
2023-12-16T22:21:36.911Z,4.25
2023-12-16T22:24:04.464Z,4.25
2023-12-16T22:26:31.695Z,5.43
2023-12-16T22:28:58.872Z,4.18
2023-12-16T22:31:26.094Z,4.25
2023-12-16T22:33:53.343Z,4.20
2023-12-16T22:36:20.698Z,4.40
2023-12-16T22:38:47.930Z,4.53
2023-12-16T22:41:15.245Z,3.47
2023-12-16T22:43:42.500Z,3.65
2023-12-16T22:46:09.702Z,3.70
2023-12-16T22:48:37.100Z,3.90
2023-12-16T22:51:04.639Z,3.15
2023-12-16T22:53:31.925Z,3.47
2023-12-16T22:55:59.088Z,3.05
2023-12-16T22:58:31.751Z,2.83
2023-12-16T23:01:09.166Z,2.90
2023-12-16T23:03:36.935Z,3.13
2023-12-16T23:06:04.814Z,2.55
2023-12-16T23:08:31.995Z,3.17
2023-12-16T23:10:59.209Z,2.45
2023-12-16T23:13:26.403Z,2.35
2023-12-16T23:15:53.665Z,2.80
2023-12-16T23:18:20.993Z,2.70
2023-12-16T23:20:48.327Z,2.45
2023-12-16T23:23:15.571Z,2.42
2023-12-16T23:25:44.620Z,2.65
2023-12-16T23:28:12.172Z,2.78
2023-12-16T23:30:40.928Z,2.83
2023-12-16T23:33:08.275Z,2.92
2023-12-16T23:35:35.501Z,2.65
2023-12-16T23:38:02.695Z,3.60
2023-12-16T23:40:29.929Z,3.58
2023-12-16T23:42:57.153Z,4.53
2023-12-16T23:45:24.447Z,4.88
2023-12-16T23:47:51.931Z,5.03
2023-12-16T23:50:19.290Z,5.20
2023-12-16T23:52:46.528Z,7.13
2023-12-16T23:55:13.829Z,5.50
2023-12-16T23:57:41.415Z,6.93
